Time;durP1;ratioP1;P1;durP2;ratioP2;P2;SDS_P1;SDS_P2;PMS_P1;PMS_P2;Temp;Humidity;BMP_temperature;BMP_pressure;BME280_temperature;BME280_humidity;BME280_pressure;Samples;Min_cycle;Max_cycle;Signal;HPM_P1;HPM_P2
2022/11/03 00:01:51;;;;;;;42.60;22.50;;;;;;;7.76;89.51;99135.66;106454;1310;138424;-77
2022/11/03 00:04:19;;;;;;;41.10;21.90;;;;;;;7.75;89.48;99135.23;106587;1310;22258;-77
2022/11/03 00:06:49;;;;;;;35.30;20.20;;;;;;;7.74;89.49;99132.71;106388;1310;22137;-77
2022/11/03 00:09:18;;;;;;;38.90;19.90;;;;;;;7.73;89.05;99132.21;106166;1308;138430;-77
2022/11/03 00:11:46;;;;;;;39.50;20.50;;;;;;;7.72;89.20;99137.62;106406;1312;23044;-78
2022/11/03 00:14:16;;;;;;;35.10;20.30;;;;;;;7.71;89.25;99138.38;106514;1298;138320;-77
2022/11/03 00:16:43;;;;;;;37.70;21.80;;;;;;;7.69;89.20;99139.70;106391;1312;22174;-77
2022/11/03 00:19:10;;;;;;;41.80;22.20;;;;;;;7.68;89.41;99141.63;106411;1299;22209;-77
2022/11/03 00:21:37;;;;;;;39.70;21.60;;;;;;;7.66;89.33;99141.84;106131;1312;22224;-77
2022/11/03 00:24:06;;;;;;;41.30;20.00;;;;;;;7.65;89.12;99144.92;106417;1311;22181;-77
2022/11/03 00:26:33;;;;;;;40.60;20.70;;;;;;;7.63;89.23;99146.94;106430;1310;138450;-77
2022/11/03 00:29:05;;;;;;;36.60;20.60;;;;;;;7.60;88.98;99151.59;106450;1302;23131;-77
2022/11/03 00:31:35;;;;;;;38.20;21.00;;;;;;;7.57;89.14;99151.23;106345;1310;138411;-78
2022/11/03 00:34:02;;;;;;;44.90;23.50;;;;;;;7.54;88.81;99151.42;106491;1310;22397;-78
2022/11/03 00:36:37;;;;;;;40.20;23.10;;;;;;;7.51;89.10;99148.27;106407;1310;22198;-77
2022/11/03 00:39:05;;;;;;;43.10;24.30;;;;;;;7.48;89.29;99148.67;106413;1305;138641;-77
2022/11/03 00:41:34;;;;;;;44.40;24.10;;;;;;;7.45;89.33;99147.59;106232;1307;22285;-78
2022/11/03 00:44:00;;;;;;;44.60;24.20;;;;;;;7.44;89.47;99146.77;106310;1310;138450;-78
2022/11/03 00:46:26;;;;;;;42.10;23.10;;;;;;;7.41;89.49;99142.17;106524;1304;22184;-77
2022/11/03 00:48:53;;;;;;;48.70;25.50;;;;;;;7.37;89.36;99142.46;106417;1298;22228;-77
2022/11/03 00:51:21;;;;;;;41.20;24.30;;;;;;;7.36;89.54;99144.51;106476;1310;138141;-78
2022/11/03 00:53:54;;;;;;;47.20;26.50;;;;;;;7.33;89.44;99144.95;106462;1305;22302;-77
2022/11/03 00:56:28;;;;;;;47.90;26.40;;;;;;;7.30;89.59;99143.58;106370;1310;138835;-78
2022/11/03 00:58:56;;;;;;;48.70;26.60;;;;;;;7.27;89.80;99143.78;106435;1298;22333;-77
2022/11/03 01:01:25;;;;;;;52.00;27.40;;;;;;;7.25;89.71;99148.15;106383;1310;138312;-77
2022/11/03 01:06:50;;;;;;;49.00;28.50;;;;;;;7.21;90.22;99151.49;106317;1312;22152;-77
2022/11/03 01:09:24;;;;;;;50.60;26.50;;;;;;;7.19;89.89;99154.86;106327;1299;138453;-78
2022/11/03 01:12:05;;;;;;;49.80;27.10;;;;;;;7.16;89.99;99154.23;106468;1310;22219;-77
2022/11/03 01:14:35;;;;;;;48.50;27.60;;;;;;;7.12;89.94;99156.34;106344;1313;138355;-77
2022/11/03 01:17:04;;;;;;;46.20;26.60;;;;;;;7.09;90.02;99160.55;106469;1311;22670;-77
2022/11/03 01:19:30;;;;;;;;;;;;;;;7.06;89.97;99160.04;106285;1301;138527;-77
2022/11/03 01:21:56;;;;;;;48.40;27.70;;;;;;;7.02;90.45;99162.48;106534;1310;22182;-77
2022/11/03 01:24:25;;;;;;;51.30;28.40;;;;;;;7.00;90.27;99158.89;106552;1310;22820;-77
2022/11/03 01:26:54;;;;;;;44.10;27.10;;;;;;;6.97;90.34;99167.19;106306;1311;138388;-77
2022/11/03 01:29:20;;;;;;;51.00;28.20;;;;;;;6.95;90.20;99163.89;106267;1311;22215;-77
2022/11/03 01:31:46;;;;;;;51.40;28.50;;;;;;;6.93;90.70;99161.92;106473;1309;138625;-77
2022/11/03 01:34:15;;;;;;;50.70;27.10;;;;;;;6.93;90.91;99163.01;106596;1309;22150;-77
2022/11/03 01:36:42;;;;;;;51.40;27.50;;;;;;;6.93;90.88;99165.75;106485;1312;22098;-77
2022/11/03 01:39:17;;;;;;;51.50;29.30;;;;;;;6.93;91.21;99167.05;106283;1307;138353;-77
2022/11/03 01:41:46;;;;;;;46.80;27.00;;;;;;;6.92;90.83;99167.37;106494;1310;22108;-78
2022/11/03 01:44:13;;;;;;;48.80;25.90;;;;;;;6.90;91.03;99171.54;106466;1310;138300;-77
2022/11/03 01:47:00;;;;;;;47.00;24.50;;;;;;;6.89;91.00;99167.90;106807;1297;22094;-77
2022/11/03 01:49:42;;;;;;;46.00;26.60;;;;;;;6.88;91.25;99168.06;106343;1299;138427;-78
2022/11/03 01:52:10;;;;;;;49.50;26.10;;;;;;;6.87;91.14;99165.54;106606;1310;22178;-78
2022/11/03 01:54:39;;;;;;;49.50;26.40;;;;;;;6.86;91.51;99163.06;106517;1305;22136;-77
2022/11/03 01:57:12;;;;;;;49.40;26.80;;;;;;;6.86;91.56;99160.45;106505;1310;138322;-78
2022/11/03 01:59:39;;;;;;;46.20;24.50;;;;;;;6.83;91.17;99154.23;106444;1298;22265;-78
2022/11/03 02:02:06;;;;;;;44.70;25.20;;;;;;;6.80;91.28;99148.01;106427;1310;138185;-77
2022/11/03 02:04:34;;;;;;;45.70;24.70;;;;;;;6.76;90.59;99147.84;106559;1310;22934;-78
2022/11/03 02:07:09;;;;;;;39.80;23.40;;;;;;;6.73;90.92;99145.86;106490;1310;22141;-77
2022/11/03 02:09:35;;;;;;;46.50;25.80;;;;;;;6.70;91.06;99144.60;106464;1296;137966;-77
2022/11/03 02:12:06;;;;;;;41.30;23.60;;;;;;;6.67;90.88;99149.71;106439;1310;22112;-77
2022/11/03 02:14:44;;;;;;;40.70;23.00;;;;;;;6.62;91.07;99142.54;106397;1310;140384;-78
2022/11/03 02:17:13;;;;;;;42.40;22.40;;;;;;;6.59;91.00;99143.77;106607;1310;22951;-77
2022/11/03 02:20:06;;;;;;;39.10;23.70;;;;;;;6.54;91.23;99143.51;106456;1297;138541;-77
2022/11/03 02:23:01;;;;;;;37.80;21.40;;;;;;;6.49;91.09;99145.74;106452;1304;22113;-77
2022/11/03 02:25:47;;;;;;;51.10;25.10;;;;;;;6.46;91.04;99149.21;106454;1308;138313;-78
2022/11/03 02:28:17;;;;;;;41.40;24.70;;;;;;;6.42;90.64;99154.45;106561;1285;22498;-78
2022/11/03 02:31:02;;;;;;;43.90;23.90;;;;;;;6.38;90.97;99155.46;106461;1288;23168;-78
2022/11/03 02:33:52;;;;;;;43.10;24.50;;;;;;;6.34;90.47;99159.27;106367;1310;138073;-78
2022/11/03 02:36:19;;;;;;;42.80;23.80;;;;;;;6.27;90.31;99162.61;106598;1310;22229;-77
2022/11/03 02:38:53;;;;;;;42.50;24.00;;;;;;;6.22;90.46;99165.12;106699;1300;138521;-77
2022/11/03 02:41:20;;;;;;;44.00;24.40;;;;;;;6.19;90.84;99172.35;106584;1295;22107;-77
2022/11/03 02:43:48;;;;;;;46.20;26.40;;;;;;;6.18;91.30;99168.71;106343;1306;138691;-77
2022/11/03 02:46:17;;;;;;;47.50;25.40;;;;;;;6.18;91.16;99172.20;106454;1310;22008;-78
2022/11/03 02:48:43;;;;;;;49.20;26.70;;;;;;;6.16;91.63;99172.96;106284;1311;22099;-77
2022/11/03 02:51:11;;;;;;;45.70;25.80;;;;;;;6.15;91.92;99171.58;106439;1298;138188;-77
2022/11/03 02:54:03;;;;;;;48.20;27.60;;;;;;;6.15;91.90;99171.85;106547;1310;22239;-79
2022/11/03 02:56:32;;;;;;;50.90;25.20;;;;;;;6.14;91.90;99172.09;106116;1312;138445;-78
2022/11/03 02:59:10;;;;;;;41.40;24.90;;;;;;;6.13;92.19;99171.89;106584;1310;22079;-77
2022/11/03 03:01:46;;;;;;;46.80;25.90;;;;;;;6.11;92.01;99168.41;106336;1294;138844;-78
2022/11/03 03:04:25;;;;;;;44.80;25.10;;;;;;;6.09;92.05;99173.11;106598;1310;22163;-78
2022/11/03 03:07:10;;;;;;;;;;;;;;;6.08;92.27;99173.80;106516;1305;22379;-77
2022/11/03 03:09:45;;;;;;;41.30;24.30;;;;;;;6.05;92.53;99175.62;106529;1310;124060;-77
2022/11/03 03:12:14;;;;;;;46.30;25.30;;;;;;;6.03;92.13;99174.57;106454;1293;22091;-77
2022/11/03 03:14:43;;;;;;;41.60;23.60;;;;;;;6.02;92.58;99174.27;106300;1312;138474;-77
2022/11/03 03:17:25;;;;;;;44.20;24.90;;;;;;;6.01;92.45;99175.56;106440;1297;22114;-78
2022/11/03 03:19:58;;;;;;;47.40;25.80;;;;;;;6.00;92.58;99176.41;106481;1310;138525;-78
2022/11/03 03:22:39;;;;;;;44.50;25.40;;;;;;;6.00;92.71;99179.92;106564;1296;22282;-77
2022/11/03 03:25:10;;;;;;;44.30;25.70;;;;;;;6.00;93.14;99179.70;106488;1311;22234;-77
2022/11/03 03:27:41;;;;;;;47.70;25.60;;;;;;;6.00;93.13;99181.66;106495;1310;138122;-78
2022/11/03 03:30:07;;;;;;;48.40;24.80;;;;;;;5.99;93.10;99177.83;106539;1310;22247;-78
2022/11/03 03:32:39;;;;;;;45.90;25.90;;;;;;;5.98;93.00;99175.83;106339;1298;138341;-77
2022/11/03 03:35:11;;;;;;;45.80;25.60;;;;;;;5.98;93.11;99180.94;106550;1310;22350;-78
2022/11/03 03:37:45;;;;;;;51.30;26.80;;;;;;;5.97;93.18;99179.73;106363;1305;139384;-77
2022/11/03 03:40:16;;;;;;;47.80;28.20;;;;;;;5.96;93.13;99182.17;106470;1311;22108;-77
2022/11/03 03:42:44;;;;;;;46.30;25.50;;;;;;;5.95;93.12;99186.46;106451;1291;22134;-77
2022/11/03 03:45:11;;;;;;;43.60;24.40;;;;;;;5.93;93.09;99188.27;106232;1302;138448;-77
2022/11/03 03:47:38;;;;;;;40.30;24.70;;;;;;;5.93;93.39;99191.23;106571;1310;22077;-77
2022/11/03 03:50:09;;;;;;;49.30;26.00;;;;;;;5.91;93.27;99186.89;106486;1310;138234;-78
2022/11/03 03:52:36;;;;;;;47.60;24.70;;;;;;;5.90;93.07;99182.19;106563;1296;22088;-77
2022/11/03 03:55:14;;;;;;;47.90;24.40;;;;;;;5.89;92.97;99179.69;106465;1310;22028;-77
2022/11/03 03:57:42;;;;;;;50.50;25.90;;;;;;;5.87;92.86;99181.15;106598;1310;22149;-77
2022/11/03 04:00:11;;;;;;;42.10;23.10;;;;;;;5.86;92.76;99179.45;106616;1310;22229;-77
2022/11/03 04:02:40;;;;;;;45.50;25.90;;;;;;;5.84;92.61;99175.87;106354;1305;138406;-77
2022/11/03 04:05:08;;;;;;;42.20;23.10;;;;;;;5.82;93.00;99177.75;106558;1310;22083;-77
2022/11/03 04:07:48;;;;;;;45.60;25.60;;;;;;;5.81;93.03;99177.30;106467;1310;138481;-77
2022/11/03 04:10:21;;;;;;;44.20;24.60;;;;;;;5.79;93.46;99175.08;106476;1310;22106;-77
2022/11/03 04:23:53;;;;;;;45.20;25.50;;;;;;;5.74;93.60;99167.88;106394;1294;22056;-77
2022/11/03 04:26:21;;;;;;;51.30;26.90;;;;;;;5.74;93.69;99171.41;106625;1303;138360;-77
2022/11/03 04:28:49;;;;;;;44.60;26.70;;;;;;;5.74;93.87;99173.45;106497;1310;22313;-77
2022/11/03 04:31:16;;;;;;;48.60;26.10;;;;;;;5.73;93.65;99170.48;106395;1304;138250;-78
2022/11/03 04:33:43;;;;;;;45.90;25.00;;;;;;;5.72;93.57;99171.31;106461;1295;22285;-78
2022/11/03 04:36:21;;;;;;;48.90;26.30;;;;;;;5.71;93.48;99170.02;106455;1311;23010;-77
2022/11/03 04:38:48;;;;;;;48.50;26.10;;;;;;;5.69;93.51;99167.89;106352;1312;138359;-78
2022/11/03 04:41:19;;;;;;;52.20;26.10;;;;;;;5.68;93.55;99165.69;106446;1311;22210;-78
2022/11/03 04:43:45;;;;;;;48.60;28.50;;;;;;;5.66;93.29;99162.88;106545;1296;138563;-77
2022/11/03 04:46:24;;;;;;;55.70;28.00;;;;;;;5.64;93.49;99159.79;106435;1298;22355;-77
2022/11/03 04:48:52;;;;;;;54.40;29.30;;;;;;;5.63;93.78;99157.23;106413;1310;22245;-77
2022/11/03 04:51:25;;;;;;;52.20;27.30;;;;;;;5.60;93.57;99154.61;106474;1310;138285;-78
2022/11/03 04:54:02;;;;;;;54.20;27.60;;;;;;;5.58;93.15;99153.33;106308;1300;22291;-77
2022/11/03 04:56:28;;;;;;;57.20;28.80;;;;;;;5.56;93.71;99157.23;106434;1290;138290;-78
2022/11/03 04:58:57;;;;;;;54.80;28.80;;;;;;;5.56;93.94;99160.08;106450;1311;22549;-77
2022/11/03 05:01:24;;;;;;;47.10;26.40;;;;;;;5.53;94.01;99160.02;106297;1309;138371;-77
2022/11/03 05:03:54;;;;;;;48.10;27.10;;;;;;;5.51;93.88;99163.84;106444;1302;22191;-77
2022/11/03 05:06:22;;;;;;;43.60;25.40;;;;;;;5.49;93.92;99162.65;106404;1311;22812;-77
2022/11/03 05:08:53;;;;;;;42.90;24.40;;;;;;;5.47;93.89;99160.40;106471;1309;138414;-78
2022/11/03 05:11:21;;;;;;;45.30;24.40;;;;;;;5.45;93.66;99160.72;106575;1310;22205;-77
2022/11/03 05:13:50;;;;;;;41.50;22.10;;;;;;;5.43;93.93;99158.66;106309;1298;138366;-77
2022/11/03 05:16:17;;;;;;;47.00;26.10;;;;;;;5.40;93.87;99158.46;106423;1310;22280;-77
2022/11/03 05:18:48;;;;;;;51.00;27.70;;;;;;;5.38;94.04;99159.09;106421;1310;22993;-77
2022/11/03 05:21:20;;;;;;;53.00;26.70;;;;;;;5.36;94.13;99157.71;106554;1290;138419;-78
2022/11/03 05:23:50;;;;;;;45.00;24.90;;;;;;;5.34;93.96;99159.15;106418;1296;22428;-77
2022/11/03 05:26:24;;;;;;;38.90;22.20;;;;;;;5.32;93.75;99159.39;106359;1312;138208;-77
2022/11/03 05:29:36;;;;;;;40.20;23.00;;;;;;;5.31;93.66;99160.63;106584;1297;22190;-77
2022/11/03 05:32:02;;;;;;;39.70;23.60;;;;;;;5.29;93.69;99163.02;105831;1317;138259;-78
2022/11/03 05:34:34;;;;;;;46.60;24.50;;;;;;;5.29;93.67;99159.65;105928;1302;22111;-77
2022/11/03 05:37:25;;;;;;;43.70;24.40;;;;;;;5.28;93.77;99160.71;105755;1318;22890;-77
2022/11/03 05:40:02;;;;;;;44.10;23.30;;;;;;;5.26;93.66;99157.85;105859;1317;22298;-78
2022/11/03 05:42:41;;;;;;;37.50;22.00;;;;;;;5.24;93.55;99154.16;105800;1317;22122;-77
2022/11/03 05:45:13;;;;;;;;;;;;;;;5.22;93.61;99151.15;106164;1309;138694;-78
2022/11/03 05:47:40;;;;;;;36.30;21.10;;;;;;;5.21;93.62;99154.63;105963;1316;22241;-77
2022/11/03 05:50:17;;;;;;;;;;;;;;;5.19;93.43;99149.41;105812;1316;138568;-77
2022/11/03 05:52:45;;;;;;;37.40;22.00;;;;;;;5.17;93.53;99152.02;106042;1316;22213;-77
2022/11/03 05:55:32;;;;;;;39.00;21.40;;;;;;;5.17;93.94;99152.73;105923;1304;22188;-77
2022/11/03 05:58:11;;;;;;;45.40;22.70;;;;;;;5.18;93.98;99152.98;105557;1316;22189;-77
2022/11/03 06:00:40;;;;;;;44.60;20.80;;;;;;;5.19;94.02;99158.05;105868;1317;22199;-77
2022/11/03 06:03:13;;;;;;;41.70;18.80;;;;;;;5.19;93.83;99158.78;105649;1311;138396;-77
2022/11/03 06:05:40;;;;;;;40.60;19.60;;;;;;;5.17;93.46;99156.37;105907;1302;22283;-77
2022/11/03 06:08:16;;;;;;;40.20;19.40;;;;;;;5.17;94.00;99155.99;105765;1311;138701;-77
2022/11/03 06:10:50;;;;;;;38.20;20.50;;;;;;;5.18;94.01;99151.73;106398;1312;22417;-78
2022/11/03 06:13:26;;;;;;;40.90;20.10;;;;;;;5.19;93.97;99151.86;106409;1312;22200;-78
2022/11/03 06:16:00;;;;;;;37.70;19.10;;;;;;;5.22;93.81;99158.21;106659;1299;22176;-79
2022/11/03 06:18:33;;;;;;;34.70;20.10;;;;;;;5.25;93.93;99156.25;106522;1310;22168;-77
2022/11/03 06:21:18;;;;;;;37.40;20.20;;;;;;;5.27;93.81;99153.20;106316;1310;138537;-78
2022/11/03 06:23:44;;;;;;;40.10;20.20;;;;;;;5.30;93.98;99157.67;106559;1303;22287;-78
2022/11/03 06:26:23;;;;;;;31.40;15.80;;;;;;;5.33;93.90;99163.67;106297;1298;138730;-77
2022/11/03 06:28:50;;;;;;;34.60;15.70;;;;;;;5.31;93.48;99165.82;106418;1300;22270;-77
2022/11/03 06:31:21;;;;;;;31.50;16.30;;;;;;;5.28;93.18;99170.06;106532;1310;22204;-77
2022/11/03 06:33:48;;;;;;;27.30;15.40;;;;;;;5.25;92.76;99171.04;106201;1311;138162;-77
2022/11/03 06:36:21;;;;;;;28.30;14.40;;;;;;;5.22;92.60;99173.16;106293;1302;22164;-77
2022/11/03 06:38:53;;;;;;;28.60;15.30;;;;;;;5.20;92.49;99176.05;106737;1280;138625;-78
2022/11/03 06:41:24;;;;;;;28.60;15.70;;;;;;;5.20;91.97;99177.79;106415;1311;22175;-78
2022/11/03 06:43:51;;;;;;;28.70;14.30;;;;;;;5.14;91.51;99180.61;106362;1310;138428;-77
2022/11/03 06:46:23;;;;;;;28.60;14.70;;;;;;;5.09;91.47;99178.90;106413;1290;22232;-77
2022/11/03 06:48:59;;;;;;;25.70;14.20;;;;;;;5.07;91.82;99177.17;106272;1310;22283;-77
2022/11/03 06:51:27;;;;;;;28.20;14.50;;;;;;;5.10;92.32;99181.14;106355;1310;138429;-77
2022/11/03 06:53:58;;;;;;;32.20;16.90;;;;;;;5.14;92.47;99184.09;106453;1298;22239;-77
2022/11/03 06:56:27;;;;;;;26.60;15.10;;;;;;;5.18;92.56;99186.23;106428;1299;138758;-77
2022/11/03 06:58:55;;;;;;;26.80;14.70;;;;;;;5.23;93.02;99189.21;106578;1310;22181;-75
2022/11/03 07:01:25;;;;;;;35.00;18.20;;;;;;;5.39;95.52;99189.34;106576;1310;22097;-78
2022/11/03 07:03:58;;;;;;;37.40;16.70;;;;;;;5.68;95.86;99187.87;106572;1310;22307;-77
2022/11/03 07:06:27;;;;;;;38.90;18.40;;;;;;;5.81;94.51;99183.90;106432;1299;22807;-77
2022/11/03 07:09:08;;;;;;;42.10;16.50;;;;;;;5.88;93.65;99184.92;106292;1297;138349;-78
2022/11/03 07:11:40;;;;;;;30.30;16.30;;;;;;;5.92;92.90;99186.06;106283;1312;22310;-77
2022/11/03 07:14:13;;;;;;;37.20;16.40;;;;;;;5.95;92.95;99181.27;106350;1312;138668;-78
2022/11/03 07:16:46;;;;;;;33.70;17.20;;;;;;;6.10;94.63;99180.93;106459;1298;22116;-78
2022/11/03 07:19:28;;;;;;;36.60;17.90;;;;;;;6.18;93.41;99173.92;106382;1310;22811;-78
2022/11/03 07:22:00;;;;;;;41.20;19.50;;;;;;;6.26;93.80;99168.80;106488;1310;22252;-78
2022/11/03 07:24:29;;;;;;;35.90;18.90;;;;;;;6.33;93.85;99168.21;106479;1310;22993;-78
2022/11/03 07:27:07;;;;;;;38.20;20.20;;;;;;;6.40;93.80;99159.16;106344;1310;138380;-78
2022/11/03 07:29:33;;;;;;;33.40;20.00;;;;;;;6.45;93.54;99154.04;106559;1303;22371;-78
2022/11/03 07:31:59;;;;;;;41.20;21.40;;;;;;;6.48;93.53;99156.35;106409;1310;138407;-78
2022/11/03 07:34:31;;;;;;;46.00;23.30;;;;;;;6.52;93.81;99152.28;106487;1303;23018;-78
2022/11/03 07:36:58;;;;;;;41.10;22.50;;;;;;;6.57;94.19;99149.25;106386;1298;22349;-78
2022/11/03 07:39:34;;;;;;;47.10;21.30;;;;;;;6.61;94.21;99144.28;106454;1310;139022;-77
2022/11/03 07:42:11;;;;;;;40.50;22.70;;;;;;;6.69;94.30;99139.93;106359;1311;22164;-78
2022/11/03 07:44:39;;;;;;;42.20;23.80;;;;;;;6.77;94.39;99138.22;106287;1305;138864;-78
2022/11/03 07:47:12;;;;;;;39.60;24.10;;;;;;;6.86;94.58;99137.03;106549;1296;23123;-78
2022/11/03 07:49:39;;;;;;;45.50;25.30;;;;;;;6.96;95.00;99130.81;106425;1311;139036;-78
2022/11/03 07:52:12;;;;;;;45.60;26.40;;;;;;;7.06;94.89;99126.16;106519;1303;22518;-78
2022/11/03 07:54:39;;;;;;;51.70;24.80;;;;;;;7.16;94.88;99125.56;106373;1311;22156;-78
2022/11/03 07:57:14;;;;;;;46.90;24.10;;;;;;;7.23;94.45;99121.05;106357;1299;139003;-78
2022/11/03 07:59:45;;;;;;;45.90;23.00;;;;;;;7.32;94.29;99120.80;106583;1300;23140;-78
2022/11/03 08:02:25;;;;;;;39.70;21.60;;;;;;;7.42;94.46;99119.19;106429;1310;139215;-78
2022/11/03 08:04:51;;;;;;;38.80;21.10;;;;;;;7.52;94.36;99113.48;106530;1312;22196;-78
2022/11/03 08:07:18;;;;;;;42.90;21.80;;;;;;;7.61;94.13;99113.31;106520;1296;22205;-78
2022/11/03 08:09:44;;;;;;;38.90;22.30;;;;;;;7.70;93.74;99110.59;106488;1310;138366;-78
2022/11/03 08:12:11;;;;;;;37.20;20.70;;;;;;;7.80;93.67;99102.57;106580;1310;22948;-77
2022/11/03 08:14:37;;;;;;;33.60;19.30;;;;;;;7.89;93.56;99095.01;106570;1302;138260;-77
2022/11/03 08:17:04;;;;;;;36.50;18.90;;;;;;;7.98;93.15;99090.27;106560;1299;23103;-78
2022/11/03 08:19:30;;;;;;;32.50;17.00;;;;;;;8.08;92.96;99082.19;106319;1312;138558;-78
2022/11/03 08:21:56;;;;;;;38.50;18.00;;;;;;;8.19;92.72;99081.48;106540;1311;22133;-77
2022/11/03 08:24:22;;;;;;;32.50;16.80;;;;;;;8.29;92.56;99078.40;106805;1300;22839;-78
2022/11/03 08:26:48;;;;;;;37.30;17.80;;;;;;;8.40;92.34;99077.98;106418;1311;138532;-78
2022/11/03 08:29:16;;;;;;;31.70;15.50;;;;;;;8.50;92.19;99081.98;106600;1296;22099;-78
2022/11/03 08:31:43;;;;;;;32.80;17.60;;;;;;;8.61;91.90;99077.23;106318;1312;138528;-78
2022/11/03 08:34:10;;;;;;;36.60;17.60;;;;;;;8.71;91.78;99073.05;106290;1309;138903;-78
2022/11/03 08:36:37;;;;;;;28.60;16.60;;;;;;;8.82;91.43;99076.95;106618;1302;22809;-78
2022/11/03 08:39:04;;;;;;;30.50;16.80;;;;;;;8.92;91.12;99072.67;106441;1305;22129;-77
2022/11/03 08:41:30;;;;;;;34.10;17.90;;;;;;;9.03;91.05;99075.61;106369;1312;138937;-79
2022/11/03 08:43:56;;;;;;;35.20;16.90;;;;;;;9.13;90.83;99068.02;106368;1312;22231;-78
2022/11/03 08:46:23;;;;;;;19.60;11.00;;;;;;;9.23;90.26;99064.84;106450;1311;138740;-78
2022/11/03 08:48:49;;;;;;;21.50;11.50;;;;;;;9.33;89.28;99063.52;106460;1305;22849;-78
2022/11/03 08:51:15;;;;;;;28.70;14.40;;;;;;;9.42;88.94;99061.84;106564;1312;22303;-77
2022/11/03 08:53:42;;;;;;;29.30;14.70;;;;;;;9.53;88.83;99061.96;106462;1302;138511;-78
2022/11/03 08:56:08;;;;;;;27.50;14.00;;;;;;;9.64;88.52;99063.11;106545;1311;22307;-79
2022/11/03 08:58:35;;;;;;;31.00;15.00;;;;;;;9.73;88.45;99060.10;106472;1299;138481;-78
2022/11/03 09:01:04;;;;;;;24.60;14.60;;;;;;;9.83;87.94;99057.52;106611;1302;22878;-77
2022/11/03 09:03:31;;;;;;;21.50;11.00;;;;;;;9.93;87.71;99055.86;106279;1311;22186;-77
2022/11/03 09:05:57;;;;;;;19.30;8.70;;;;;;;10.01;86.65;99046.89;106368;1313;138687;-78
2022/11/03 09:08:24;;;;;;;22.80;9.20;;;;;;;10.10;85.86;99047.26;106499;1305;22948;-79
2022/11/03 09:10:50;;;;;;;18.50;8.00;;;;;;;10.18;85.10;99043.36;106462;1306;138539;-78
2022/11/03 09:13:16;;;;;;;16.30;7.70;;;;;;;10.25;84.72;99042.30;106579;1311;22304;-78
2022/11/03 09:15:43;;;;;;;17.30;9.50;;;;;;;10.35;84.46;99041.29;106587;1312;22207;-77
2022/11/03 09:18:09;;;;;;;15.70;7.70;;;;;;;10.42;83.21;99039.11;106391;1312;138428;-77
2022/11/03 09:20:35;;;;;;;19.90;8.70;;;;;;;10.50;82.93;99037.48;106541;1312;22541;-78
2022/11/03 09:23:02;;;;;;;15.80;9.30;;;;;;;10.58;82.63;99031.55;106350;1312;138386;-78
2022/11/03 09:25:28;;;;;;;17.10;8.80;;;;;;;10.68;82.51;99029.53;106584;1311;22129;-78
2022/11/03 09:27:54;;;;;;;19.00;8.40;;;;;;;10.75;82.34;99023.23;106429;1312;138686;-77
2022/11/03 09:30:20;;;;;;;16.10;8.10;;;;;;;10.84;81.82;99025.31;106605;1296;22278;-78
2022/11/03 09:32:47;;;;;;;16.80;7.50;;;;;;;10.92;81.07;99020.76;106634;1310;22256;-77
2022/11/03 09:35:13;;;;;;;23.30;9.40;;;;;;;11.02;81.20;99019.16;106317;1310;251115;-78
2022/11/03 09:37:39;;;;;;;19.60;9.00;;;;;;;11.11;80.79;99013.12;106514;1313;22176;-79
2022/11/03 09:40:08;;;;;;;18.00;8.80;;;;;;;11.19;80.26;99010.75;106365;1312;138678;-78
2022/11/03 09:42:36;;;;;;;16.40;8.70;;;;;;;11.29;80.03;99010.77;106480;1312;22069;-77
2022/11/03 09:45:04;;;;;;;21.40;8.70;;;;;;;11.37;79.79;99008.40;106840;1302;22191;-77
2022/11/03 09:47:34;;;;;;;18.50;7.90;;;;;;;11.45;79.48;99001.98;106325;1309;138511;-78
2022/11/03 09:50:01;;;;;;;14.70;8.10;;;;;;;11.51;78.57;98993.63;106485;1299;22145;-78
2022/11/03 09:52:27;;;;;;;16.20;6.80;;;;;;;11.60;78.42;98993.81;106355;1312;138748;-78
2022/11/03 09:54:54;;;;;;;14.40;5.70;;;;;;;11.68;78.09;98993.18;106531;1312;22145;-78
2022/11/03 09:57:21;;;;;;;14.60;6.70;;;;;;;11.77;77.03;98985.58;106442;1311;22150;-77
2022/11/03 09:59:49;;;;;;;14.80;5.80;;;;;;;11.86;76.53;98986.08;106423;1298;138381;-78
2022/11/03 10:02:29;;;;;;;13.10;6.10;;;;;;;11.94;75.96;98982.46;106635;1309;22114;-77
2022/11/03 10:05:01;;;;;;;14.50;5.60;;;;;;;12.03;76.08;98974.89;106308;1312;138460;-78
2022/11/03 10:07:29;;;;;;;13.50;5.70;;;;;;;12.13;75.99;98981.27;106518;1313;23116;-77
2022/11/03 10:09:59;;;;;;;18.40;5.70;;;;;;;12.23;74.91;98973.88;106386;1299;138526;-77
2022/11/03 10:12:30;;;;;;;20.10;7.10;;;;;;;12.31;74.19;98971.58;106556;1304;22158;-76
2022/11/03 10:14:56;;;;;;;11.30;5.80;;;;;;;12.37;73.48;98964.55;106589;1302;22294;-77
2022/11/03 10:17:28;;;;;;;18.10;6.70;;;;;;;12.43;72.79;98960.89;106467;1311;138552;-77
2022/11/03 10:19:55;;;;;;;13.50;5.60;;;;;;;12.48;72.62;98953.48;106498;1302;22196;-78
2022/11/03 10:22:22;;;;;;;14.90;5.50;;;;;;;12.55;72.57;98953.70;106209;1306;138823;-78
2022/11/03 10:24:49;;;;;;;14.30;4.40;;;;;;;12.64;71.63;98947.80;106564;1312;22054;-78
2022/11/03 10:27:27;;;;;;;12.60;4.70;;;;;;;12.71;70.75;98937.71;106502;1293;22099;-77
2022/11/03 10:30:11;;;;;;;10.90;4.80;;;;;;;12.76;70.60;98933.70;106599;1284;139066;-77
2022/11/03 10:32:37;;;;;;;12.00;5.20;;;;;;;12.76;70.21;98929.44;106407;1313;22279;-77
2022/11/03 10:35:35;;;;;;;13.70;4.70;;;;;;;12.78;70.32;98929.29;106352;1313;138925;-78
2022/11/03 10:38:21;;;;;;;15.20;5.00;;;;;;;12.84;70.22;98928.19;106597;1310;22726;-77
2022/11/03 10:40:47;;;;;;;14.30;4.80;;;;;;;12.89;70.01;98923.64;106522;1298;139700;-77
2022/11/03 10:43:13;;;;;;;11.60;6.10;;;;;;;12.97;69.81;98920.42;106633;1312;22257;-78
2022/11/03 10:45:40;;;;;;;19.10;7.10;;;;;;;13.03;69.98;98918.45;106600;1311;23011;-78
2022/11/03 10:48:09;;;;;;;14.90;8.10;;;;;;;13.09;69.64;98919.73;106493;1312;138473;-77
2022/11/03 10:50:37;;;;;;;20.20;8.70;;;;;;;13.13;69.49;98918.98;106597;1308;22219;-77
2022/11/03 10:53:04;;;;;;;21.00;9.20;;;;;;;13.17;69.73;98916.24;106522;1310;138486;-77
2022/11/03 10:55:31;;;;;;;19.40;9.20;;;;;;;13.22;69.99;98918.08;106611;1309;22139;-77
2022/11/03 10:57:57;;;;;;;14.20;7.80;;;;;;;13.27;70.00;98915.09;106550;1310;138502;-78
2022/11/03 11:00:24;;;;;;;23.90;9.30;;;;;;;13.32;69.68;98907.58;106586;1294;22327;-78
2022/11/03 11:02:58;;;;;;;16.40;7.80;;;;;;;13.36;69.31;98900.14;106544;1311;22216;-77
2022/11/03 11:05:25;;;;;;;19.10;7.70;;;;;;;13.40;69.03;98892.05;106236;1313;138582;-79
2022/11/03 11:07:52;;;;;;;12.50;6.90;;;;;;;13.42;68.96;98892.79;106455;1312;22273;-78
2022/11/03 11:10:24;;;;;;;13.40;6.20;;;;;;;13.46;68.40;98883.93;106346;1312;138809;-78
2022/11/03 11:13:23;;;;;;;16.10;6.00;;;;;;;13.53;67.98;98877.00;106516;1312;22136;-77
2022/11/03 11:15:52;;;;;;;16.10;6.40;;;;;;;13.61;66.95;98867.37;106484;1313;22206;-78
2022/11/03 11:18:27;;;;;;;;;;;;;;;13.64;66.84;98863.57;106778;1302;22393;-77
2022/11/03 11:21:00;;;;;;;15.30;5.70;;;;;;;13.68;67.10;98861.38;106536;1313;22102;-78
2022/11/03 11:23:26;;;;;;;17.60;5.80;;;;;;;13.73;66.48;98851.84;106259;1313;138441;-78
2022/11/03 11:26:08;;;;;;;11.90;5.90;;;;;;;13.76;66.42;98846.52;106543;1312;22184;-77
2022/11/03 11:28:45;;;;;;;10.60;4.50;;;;;;;13.80;65.96;98847.49;106461;1310;139049;-77
2022/11/03 11:31:28;;;;;;;9.20;3.60;;;;;;;13.81;65.57;98844.33;106466;1293;23004;-77
2022/11/03 11:34:18;;;;;;;6.60;3.20;;;;;;;13.85;64.80;98841.36;106519;1310;138440;-77
2022/11/03 11:37:06;;;;;;;9.20;3.80;;;;;;;13.90;64.95;98834.02;106415;1313;22134;-77
2022/11/03 11:39:34;;;;;;;8.10;3.30;;;;;;;13.95;63.82;98829.96;106620;1308;22147;-78
2022/11/03 11:42:16;;;;;;;10.60;3.10;;;;;;;13.97;63.31;98828.12;106474;1304;137558;-78
2022/11/03 11:44:42;;;;;;;6.50;2.90;;;;;;;13.98;62.89;98824.52;106474;1312;22096;-77
2022/11/03 11:47:33;;;;;;;9.20;3.20;;;;;;;14.00;62.28;98819.02;106457;1311;137523;-77
2022/11/03 11:50:05;;;;;;;9.90;3.80;;;;;;;14.02;62.19;98813.51;106821;1303;22146;-78